Time;durP1;ratioP1;P1;durP2;ratioP2;P2;SDS_P1;SDS_P2;PMS_P1;PMS_P2;Temp;Humidity;BMP_temperature;BMP_pressure;BME280_temperature;BME280_humidity;BME280_pressure;Samples;Min_cycle;Max_cycle;Signal;HPM_P1;HPM_P2
2022/05/14 00:01:18;;;;;;;4.53;1.40;;;13.20;99.90;;;;;;5065442;28;20193;-52
2022/05/14 00:03:44;;;;;;;1.40;1.40;;;13.20;99.90;;;;;;5065440;28;20273;-53
2022/05/14 00:06:15;;;;;;;1.10;1.10;;;13.30;99.90;;;;;;5063685;28;20243;-57
2022/05/14 00:08:42;;;;;;;2.67;1.37;;;13.30;99.90;;;;;;5064994;28;20255;-50
2022/05/14 00:13:53;;;;;;;1.80;1.67;;;13.20;99.90;;;;;;5081040;28;20193;-59
2022/05/14 00:16:20;;;;;;;1.23;1.23;;;13.20;99.90;;;;;;5064624;28;20186;-51
2022/05/14 00:18:46;;;;;;;1.60;1.30;;;13.20;99.90;;;;;;5060025;28;20202;-59
2022/05/14 00:21:13;;;;;;;1.63;1.30;;;13.30;99.90;;;;;;5065225;28;20193;-57
2022/05/14 00:23:39;;;;;;;2.50;1.50;;;13.20;99.90;;;;;;5065089;28;20177;-57
2022/05/14 00:26:06;;;;;;;2.63;1.33;;;13.20;99.90;;;;;;5059651;28;20187;-50
2022/05/14 00:28:32;;;;;;;1.13;1.00;;;13.10;99.90;;;;;;5064921;28;20350;-48
2022/05/14 00:30:58;;;;;;;1.20;1.03;;;13.10;99.90;;;;;;5064914;28;20190;-57
2022/05/14 00:33:24;;;;;;;1.27;1.17;;;13.00;99.90;;;;;;5061626;28;20231;-57
2022/05/14 00:35:50;;;;;;;4.37;1.47;;;12.90;99.90;;;;;;5063064;28;20183;-58
2022/05/14 00:38:16;;;;;;;1.33;1.23;;;12.90;99.90;;;;;;5062473;28;20182;-49
2022/05/14 00:40:46;;;;;;;2.93;1.20;;;12.80;99.90;;;;;;5065037;28;20174;-53
2022/05/14 00:43:12;;;;;;;1.33;1.23;;;12.70;99.90;;;;;;5063047;28;20252;-56
2022/05/14 00:45:41;;;;;;;1.50;1.23;;;12.70;99.90;;;;;;5063848;28;20185;-51
2022/05/14 00:48:10;;;;;;;1.30;1.20;;;12.70;99.90;;;;;;5062335;28;20178;-48
2022/05/14 00:50:55;;;;;;;1.20;1.20;;;12.60;99.90;;;;;;5062937;28;20190;-49
2022/05/14 00:53:32;;;;;;;0.97;0.97;;;12.50;99.90;;;;;;5064254;28;20211;-53
2022/05/14 00:56:03;;;;;;;1.30;1.30;;;12.50;99.90;;;;;;5063477;28;20181;-48
2022/05/14 00:58:48;;;;;;;1.70;1.20;;;12.60;99.90;;;;;;5062773;28;20268;-50
2022/05/14 01:01:14;;;;;;;1.53;1.43;;;12.60;99.90;;;;;;5060460;28;20178;-48
2022/05/14 01:03:40;;;;;;;1.20;1.20;;;12.50;99.90;;;;;;5063696;28;20220;-53
2022/05/14 01:06:08;;;;;;;2.00;1.27;;;12.40;99.90;;;;;;5064394;28;20206;-53
2022/05/14 01:08:35;;;;;;;1.37;1.27;;;12.40;99.90;;;;;;5064163;28;20204;-56
2022/05/14 01:11:01;;;;;;;2.77;1.83;;;12.30;99.90;;;;;;5064943;28;20228;-57
2022/05/14 01:13:27;;;;;;;1.43;1.37;;;12.10;99.90;;;;;;5062236;28;20202;-52
2022/05/14 01:15:59;;;;;;;1.00;1.00;;;12.20;99.90;;;;;;5062858;28;20295;-56
2022/05/14 01:18:27;;;;;;;2.37;1.40;;;12.20;99.90;;;;;;5061195;28;20178;-55
2022/05/14 01:21:11;;;;;;;1.63;1.53;;;12.20;99.90;;;;;;5062422;28;20190;-52
2022/05/14 01:26:46;;;;;;;2.23;1.50;;;12.20;99.90;;;;;;5081296;28;20273;-58
2022/05/14 01:29:15;;;;;;;1.60;1.50;;;12.20;99.90;;;;;;5063593;28;20185;-47
2022/05/14 01:31:42;;;;;;;0.83;0.83;;;12.20;99.90;;;;;;5064126;28;20181;-57
2022/05/14 01:34:11;;;;;;;1.20;0.90;;;12.10;99.90;;;;;;5062464;28;20277;-54
2022/05/14 01:36:39;;;;;;;1.27;1.27;;;12.00;99.90;;;;;;5068756;28;20276;-57
2022/05/14 01:39:06;;;;;;;1.37;1.20;;;12.10;99.90;;;;;;5065263;28;20217;-57
2022/05/14 01:41:32;;;;;;;4.23;1.40;;;12.10;99.90;;;;;;5066827;28;20295;-56
2022/05/14 01:43:58;;;;;;;1.70;1.60;;;12.00;99.90;;;;;;5069282;28;20178;-58
2022/05/14 01:46:24;;;;;;;1.87;1.50;;;12.00;99.90;;;;;;5068547;28;20186;-57
2022/05/14 01:52:12;;;;;;;3.33;1.50;;;11.80;99.90;;;;;;5085919;28;20186;-58
2022/05/14 01:54:38;;;;;;;1.00;1.00;;;11.70;99.90;;;;;;5068412;28;20185;-56
2022/05/14 01:57:04;;;;;;;2.40;1.50;;;11.80;99.90;;;;;;5067597;28;20235;-58
2022/05/14 01:59:30;;;;;;;1.30;1.10;;;11.80;99.90;;;;;;5068017;28;20182;-56
2022/05/14 02:01:55;;;;;;;1.97;1.43;;;11.70;99.90;;;;;;5068259;28;20217;-57
2022/05/14 02:04:24;;;;;;;4.43;1.43;;;11.80;99.90;;;;;;5068201;28;20265;-56
2022/05/14 02:06:50;;;;;;;1.40;1.40;;;11.80;99.90;;;;;;5067192;28;20236;-52
2022/05/14 02:09:16;;;;;;;1.00;1.00;;;11.70;99.90;;;;;;5067742;28;20197;-49
2022/05/14 02:11:43;;;;;;;1.57;1.03;;;11.70;99.90;;;;;;5066807;28;20186;-57
2022/05/14 02:14:09;;;;;;;2.57;1.47;;;11.60;99.90;;;;;;5068468;28;20237;-52
2022/05/14 02:16:35;;;;;;;1.13;1.00;;;11.50;99.90;;;;;;5067136;28;20182;-54
2022/05/14 02:19:01;;;;;;;1.00;1.00;;;11.50;99.90;;;;;;5068149;28;20269;-53
2022/05/14 02:21:28;;;;;;;1.43;1.10;;;11.50;99.90;;;;;;5066879;28;20210;-49
2022/05/14 02:23:55;;;;;;;1.30;1.20;;;11.50;99.90;;;;;;5067706;28;20178;-54
2022/05/14 02:26:21;;;;;;;1.10;1.10;;;11.50;99.90;;;;;;5064957;28;20213;-53
2022/05/14 02:28:47;;;;;;;1.40;1.30;;;11.60;99.90;;;;;;5068412;28;20205;-53
2022/05/14 02:31:13;;;;;;;2.53;1.27;;;11.60;99.90;;;;;;5067990;28;20186;-56
2022/05/14 02:33:39;;;;;;;1.43;1.33;;;11.50;99.90;;;;;;5067581;28;20209;-54
2022/05/14 02:36:07;;;;;;;1.53;1.37;;;11.50;99.90;;;;;;5067879;28;20622;-53
2022/05/14 02:38:33;;;;;;;1.43;1.30;;;11.40;99.90;;;;;;5067269;28;20272;-60
2022/05/14 02:40:59;;;;;;;1.50;1.40;;;11.50;99.90;;;;;;5067374;28;20171;-53
2022/05/14 02:43:25;;;;;;;0.97;0.97;;;11.30;99.90;;;;;;5066999;28;20224;-56
2022/05/14 02:45:51;;;;;;;2.20;1.40;;;11.30;99.90;;;;;;5066985;28;20186;-55
2022/05/14 02:48:17;;;;;;;11.27;4.83;;;11.40;99.90;;;;;;5067382;28;20189;-52
2022/05/14 02:50:43;;;;;;;1.77;1.50;;;11.30;99.90;;;;;;5065619;28;20210;-55
2022/05/14 02:53:09;;;;;;;4.07;1.70;;;11.30;99.90;;;;;;5068536;28;20215;-53
2022/05/14 02:55:35;;;;;;;1.33;1.23;;;11.30;99.90;;;;;;5067167;28;20182;-58
2022/05/14 02:58:01;;;;;;;1.57;1.47;;;11.20;99.90;;;;;;5067694;28;20250;-52
2022/05/14 03:00:27;;;;;;;1.40;1.40;;;11.10;99.90;;;;;;5066830;28;20193;-48
2022/05/14 03:02:53;;;;;;;1.20;1.20;;;11.10;99.90;;;;;;5067318;28;20213;-50
2022/05/14 03:05:22;;;;;;;1.70;1.10;;;11.10;99.90;;;;;;5067373;28;20220;-56
2022/05/14 03:07:48;;;;;;;6.80;1.60;;;11.10;99.90;;;;;;5066804;28;20281;-58
2022/05/14 03:10:14;;;;;;;1.37;1.30;;;11.00;99.90;;;;;;5067574;28;20178;-51
2022/05/14 03:12:40;;;;;;;1.67;1.20;;;11.10;99.90;;;;;;5083531;28;20202;-49
2022/05/14 03:15:08;;;;;;;0.90;0.90;;;11.10;99.90;;;;;;5066913;28;20235;-47
2022/05/14 03:17:34;;;;;;;1.43;1.33;;;11.00;99.90;;;;;;5066179;28;20182;-54
2022/05/14 03:20:06;;;;;;;1.47;1.20;;;11.00;99.90;;;;;;5066690;28;20193;-53
2022/05/14 03:22:36;;;;;;;1.13;1.13;;;11.00;99.90;;;;;;5067024;28;20205;-55
2022/05/14 03:25:03;;;;;;;1.73;1.60;;;11.00;99.90;;;;;;5067732;28;20175;-50
2022/05/14 03:27:28;;;;;;;1.10;1.10;;;11.00;99.90;;;;;;5067630;28;20220;-59
2022/05/14 03:29:54;;;;;;;1.20;1.20;;;11.00;99.90;;;;;;5067221;28;20217;-55
2022/05/14 03:32:21;;;;;;;2.33;1.30;;;11.00;99.90;;;;;;5067680;28;20220;-51
2022/05/14 03:34:47;;;;;;;2.63;1.20;;;11.00;99.90;;;;;;5065550;28;20178;-50
2022/05/14 03:37:13;;;;;;;1.10;1.10;;;11.00;99.90;;;;;;5066766;28;20701;-54
2022/05/14 03:39:39;;;;;;;2.23;1.40;;;11.00;99.90;;;;;;5066943;28;20254;-57
2022/05/14 03:45:27;;;;;;;1.53;1.30;;;10.80;99.90;;;;;;5084409;28;20189;-55
2022/05/14 03:47:53;;;;;;;2.13;1.13;;;10.80;99.90;;;;;;5066643;28;20654;-53
2022/05/14 03:50:19;;;;;;;1.40;1.30;;;10.80;99.90;;;;;;5066063;28;20186;-59
2022/05/14 03:52:44;;;;;;;2.83;1.50;;;10.90;99.90;;;;;;5066595;28;20206;-50
2022/05/14 03:55:10;;;;;;;2.13;1.53;;;11.00;99.90;;;;;;5067434;28;20196;-49
2022/05/14 03:57:36;;;;;;;1.17;1.17;;;10.90;99.90;;;;;;5066106;28;20193;-56
2022/05/14 04:00:07;;;;;;;1.83;1.23;;;11.00;99.90;;;;;;5066308;28;20197;-51
2022/05/14 04:02:33;;;;;;;7.63;2.77;;;11.10;99.90;;;;;;5067127;28;20213;-46
2022/05/14 04:04:58;;;;;;;1.60;1.50;;;11.00;99.90;;;;;;5066273;28;20181;-62
2022/05/14 04:07:24;;;;;;;1.60;1.23;;;11.00;99.90;;;;;;5066611;28;20320;-55
2022/05/14 04:09:50;;;;;;;1.53;1.20;;;11.10;99.90;;;;;;5066386;28;20268;-56
2022/05/14 04:12:16;;;;;;;1.00;1.00;;;11.10;99.90;;;;;;5066685;28;20220;-56
2022/05/14 04:14:41;;;;;;;2.40;1.50;;;11.10;99.90;;;;;;5066499;28;20235;-58
2022/05/14 04:17:07;;;;;;;1.10;1.10;;;11.20;99.90;;;;;;5066532;28;20185;-57
2022/05/14 04:19:33;;;;;;;1.60;1.10;;;11.20;99.90;;;;;;5067011;28;20189;-56
2022/05/14 04:21:59;;;;;;;2.60;1.80;;;11.30;99.90;;;;;;5065380;28;20284;-58
2022/05/14 04:24:25;;;;;;;1.93;1.27;;;11.30;99.90;;;;;;5066994;28;20194;-60
2022/05/14 04:26:50;;;;;;;3.33;1.43;;;11.10;99.90;;;;;;5065836;28;20182;-57
2022/05/14 04:29:16;;;;;;;1.40;1.30;;;11.30;99.90;;;;;;5066196;28;20192;-55
2022/05/14 04:31:42;;;;;;;3.13;1.90;;;11.20;99.90;;;;;;5065683;28;20216;-51
2022/05/14 04:34:08;;;;;;;5.40;1.70;;;11.30;99.90;;;;;;5065650;28;20189;-48
2022/05/14 04:36:33;;;;;;;1.40;1.40;;;11.20;99.90;;;;;;5065910;28;20186;-54
2022/05/14 04:38:59;;;;;;;104.80;33.30;;;11.30;99.90;;;;;;5065191;28;20250;-56
2022/05/14 04:41:30;;;;;;;2.47;1.83;;;11.30;99.90;;;;;;5065744;28;20201;-55
2022/05/14 04:43:59;;;;;;;1.23;1.13;;;11.40;99.90;;;;;;5064443;28;20181;-50
2022/05/14 04:46:26;;;;;;;2.57;1.40;;;11.50;99.90;;;;;;5065035;28;20181;-56
2022/05/14 04:48:53;;;;;;;3.40;1.10;;;11.60;99.90;;;;;;5064557;28;20200;-58
2022/05/14 04:51:19;;;;;;;8.20;3.47;;;11.80;99.90;;;;;;5065304;28;20277;-54
2022/05/14 04:53:45;;;;;;;1.60;1.30;;;11.70;99.90;;;;;;5065944;28;20208;-54
2022/05/14 04:56:11;;;;;;;2.00;1.30;;;11.80;99.90;;;;;;5063508;28;20198;-58
2022/05/14 04:58:37;;;;;;;5.23;1.70;;;11.90;99.90;;;;;;5065625;28;20277;-55
2022/05/14 05:01:02;;;;;;;2.13;1.40;;;12.00;99.90;;;;;;5064119;28;20182;-55
2022/05/14 05:03:28;;;;;;;1.70;1.60;;;12.20;99.90;;;;;;5065545;28;20186;-56
2022/05/14 05:05:59;;;;;;;3.67;1.53;;;12.20;99.90;;;;;;5065021;28;20178;-59
2022/05/14 05:08:28;;;;;;;1.73;1.63;;;12.30;99.90;;;;;;5064328;28;20221;-57
2022/05/14 05:10:54;;;;;;;1.23;1.20;;;12.40;99.90;;;;;;5065318;28;20210;-51
2022/05/14 05:13:55;;;;;;;1.77;1.67;;;12.40;99.90;;;;;;5066255;28;20229;-59
2022/05/14 05:16:21;;;;;;;5.57;4.07;;;12.50;99.90;;;;;;5066466;28;20200;-58
2022/05/14 05:18:47;;;;;;;11.63;5.77;;;12.50;99.90;;;;;;5065906;28;20182;-58
2022/05/14 05:21:13;;;;;;;2.10;1.80;;;12.60;99.90;;;;;;5066258;28;20243;-60
2022/05/14 05:23:38;;;;;;;1.50;1.40;;;12.70;99.90;;;;;;5083667;28;20201;-59
2022/05/14 05:26:05;;;;;;;1.70;1.53;;;12.70;99.90;;;;;;5066340;28;20182;-57
2022/05/14 05:28:30;;;;;;;3.13;1.30;;;12.80;99.90;;;;;;5066501;28;20181;-56
2022/05/14 05:30:56;;;;;;;1.50;1.27;;;12.80;99.90;;;;;;5065915;28;20177;-48
2022/05/14 05:33:24;;;;;;;1.30;1.30;;;12.80;99.90;;;;;;5066253;28;20296;-56
2022/05/14 05:35:51;;;;;;;2.00;1.40;;;12.90;99.90;;;;;;5065823;28;20178;-47
2022/05/14 05:38:17;;;;;;;1.40;1.30;;;13.00;99.90;;;;;;5065584;28;20216;-56
2022/05/14 05:40:44;;;;;;;1.20;1.20;;;13.00;99.90;;;;;;5065457;28;20194;-55
2022/05/14 05:43:10;;;;;;;1.83;1.30;;;12.90;99.90;;;;;;5065598;28;20194;-51
2022/05/14 05:45:38;;;;;;;1.50;1.40;;;13.00;99.90;;;;;;5066188;28;20212;-58
2022/05/14 05:48:05;;;;;;;0.90;0.90;;;13.10;99.90;;;;;;5065272;28;20190;-49
2022/05/14 05:50:32;;;;;;;1.80;1.33;;;13.20;99.90;;;;;;5066028;28;20193;-56
2022/05/14 05:52:57;;;;;;;3.00;1.53;;;13.20;99.90;;;;;;5065928;28;20214;-52
2022/05/14 05:58:19;;;;;;;1.67;1.23;;;13.40;99.90;;;;;;5059242;28;20209;-50
2022/05/14 06:00:45;;;;;;;1.60;1.07;;;13.50;99.90;;;;;;5065885;28;20185;-58
2022/05/14 06:03:11;;;;;;;1.50;1.43;;;13.70;99.90;;;;;;5066062;28;20182;-58
2022/05/14 06:05:38;;;;;;;2.03;1.77;;;13.70;99.90;;;;;;5064400;28;20190;-48
2022/05/14 06:08:12;;;;;;;1.90;1.17;;;13.80;99.90;;;;;;5065237;28;20225;-50
2022/05/14 06:10:38;;;;;;;2.10;1.80;;;14.00;99.90;;;;;;5064873;28;20182;-55
2022/05/14 06:13:08;;;;;;;1.53;1.40;;;14.00;99.90;;;;;;5082542;28;20222;-55
2022/05/14 06:15:34;;;;;;;2.30;1.43;;;14.20;99.90;;;;;;5065718;28;20217;-58
2022/05/14 06:18:04;;;;;;;1.83;1.40;;;14.30;99.90;;;;;;5065546;28;20230;-58
2022/05/14 06:20:30;;;;;;;2.30;1.37;;;14.40;99.90;;;;;;5066470;28;20269;-53
2022/05/14 06:26:19;;;;;;;1.50;1.40;;;14.60;99.90;;;;;;5083972;28;20333;-52
2022/05/14 06:28:46;;;;;;;1.77;1.67;;;14.60;99.90;;;;;;5068086;28;20247;-58
2022/05/14 06:31:12;;;;;;;1.47;1.37;;;14.80;99.90;;;;;;5067354;28;20178;-57
2022/05/14 06:33:38;;;;;;;1.47;1.33;;;14.90;99.90;;;;;;5067996;28;20254;-54
2022/05/14 06:36:04;;;;;;;0.90;0.90;;;15.00;99.90;;;;;;5067268;28;20250;-51
2022/05/14 06:38:30;;;;;;;2.33;1.53;;;15.10;99.90;;;;;;5067449;28;20331;-49
2022/05/14 06:40:56;;;;;;;1.10;1.10;;;15.20;99.90;;;;;;5067518;28;20286;-52
2022/05/14 06:43:21;;;;;;;1.10;1.10;;;15.40;99.90;;;;;;5067403;28;20255;-53
2022/05/14 06:45:47;;;;;;;1.23;1.23;;;15.40;99.90;;;;;;5067689;28;20184;-56
2022/05/14 06:48:13;;;;;;;1.20;1.20;;;15.70;99.90;;;;;;5067132;28;20256;-49
2022/05/14 06:50:46;;;;;;;1.93;1.30;;;15.90;99.90;;;;;;5067943;28;20200;-54
2022/05/14 06:53:13;;;;;;;1.60;1.43;;;16.20;99.90;;;;;;5067427;28;20308;-54
2022/05/14 06:55:41;;;;;;;1.13;1.00;;;16.40;99.90;;;;;;5067289;28;20205;-55
2022/05/14 06:58:11;;;;;;;0.93;0.90;;;16.60;99.90;;;;;;5067637;28;20263;-56
2022/05/14 07:00:37;;;;;;;2.13;1.07;;;16.80;99.90;;;;;;5065431;28;20178;-58
2022/05/14 07:08:32;;;;;;;1.00;1.00;;;17.60;99.90;;;;;;5083924;28;20194;-59
2022/05/14 07:10:58;;;;;;;0.90;0.90;;;17.50;99.90;;;;;;5066960;28;20188;-56
2022/05/14 07:13:24;;;;;;;1.03;0.97;;;17.80;99.90;;;;;;5066873;28;20206;-52
2022/05/14 07:15:49;;;;;;;1.57;0.97;;;18.00;99.90;;;;;;5066780;28;20192;-53
2022/05/14 07:18:15;;;;;;;0.97;0.90;;;17.90;99.90;;;;;;5067171;28;20178;-59
2022/05/14 07:20:41;;;;;;;0.93;0.80;;;18.30;99.90;;;;;;5067762;28;20174;-58
2022/05/14 07:23:07;;;;;;;1.47;0.90;;;18.40;99.90;;;;;;5084192;28;20176;-58
2022/05/14 07:25:32;;;;;;;2.50;0.90;;;18.50;99.90;;;;;;5067437;28;20319;-56
2022/05/14 07:27:58;;;;;;;0.77;0.77;;;18.60;99.90;;;;;;5066900;28;20174;-55
2022/05/14 07:30:24;;;;;;;1.90;0.80;;;18.70;99.90;;;;;;5067412;28;20186;-53
2022/05/14 07:32:51;;;;;;;1.25;0.70;;;18.60;99.90;;;;;;5065827;28;20213;-55
2022/05/14 07:35:17;;;;;;;0.60;0.60;;;18.60;99.90;;;;;;5066796;28;20190;-50
2022/05/14 07:37:51;;;;;;;0.73;0.40;;;18.80;99.30;;;;;;5059347;28;20186;-51
2022/05/14 07:40:22;;;;;;;0.50;0.50;;;18.90;98.40;;;;;;5063570;28;20176;-49
2022/05/14 07:43:00;;;;;;;0.50;0.50;;;19.50;97.10;;;;;;5066804;28;20176;-51
2022/05/14 07:45:35;;;;;;;0.85;0.43;;;19.30;97.10;;;;;;5066504;28;20463;-50
2022/05/14 07:48:04;;;;;;;0.50;0.50;;;19.70;96.40;;;;;;5066056;28;20169;-54
2022/05/14 07:50:30;;;;;;;0.88;0.68;;;19.70;96.00;;;;;;5065376;28;20197;-56
2022/05/14 07:52:57;;;;;;;2.63;0.55;;;19.80;96.20;;;;;;5065436;28;20209;-48
2022/05/14 07:55:23;;;;;;;1.40;0.70;;;19.90;95.50;;;;;;5066584;28;20186;-55
2022/05/14 07:57:49;;;;;;;0.50;0.50;;;20.30;95.30;;;;;;5065672;28;20184;-48
2022/05/14 08:00:15;;;;;;;0.90;0.52;;;20.30;95.50;;;;;;5067476;28;20512;-55
2022/05/14 08:02:44;;;;;;;0.40;0.40;;;20.50;95.60;;;;;;5067152;28;20190;-57
2022/05/14 08:05:11;;;;;;;0.65;0.60;;;20.90;94.70;;;;;;5067722;28;20201;-56
2022/05/14 08:07:38;;;;;;;0.60;0.60;;;21.10;94.00;;;;;;5067156;28;20290;-54
2022/05/14 08:10:06;;;;;;;2.55;0.68;;;21.40;94.30;;;;;;5067753;28;20193;-58
2022/05/14 08:12:35;;;;;;;0.82;0.55;;;21.90;92.90;;;;;;5067378;28;20216;-61
2022/05/14 08:15:02;;;;;;;2.28;0.70;;;22.00;93.00;;;;;;5066448;28;20182;-61
2022/05/14 08:17:27;;;;;;;0.70;0.70;;;21.70;92.60;;;;;;5067075;28;20245;-54
2022/05/14 08:19:53;;;;;;;0.43;0.43;;;22.20;92.30;;;;;;5067050;28;20280;-57
2022/05/14 08:25:03;;;;;;;1.13;0.93;;;21.40;92.20;;;;;;5084220;28;20670;-57
2022/05/14 08:27:29;;;;;;;0.50;0.50;;;21.30;92.40;;;;;;5067210;28;20196;-61
2022/05/14 08:29:55;;;;;;;0.98;0.43;;;21.40;91.60;;;;;;5067227;28;20181;-58
2022/05/14 08:32:21;;;;;;;0.43;0.43;;;21.80;90.60;;;;;;5066062;28;20308;-56
2022/05/14 08:34:49;;;;;;;0.75;0.68;;;21.80;90.30;;;;;;5066866;28;20209;-51
2022/05/14 08:37:14;;;;;;;0.80;0.80;;;22.60;89.60;;;;;;5066128;28;20190;-56
2022/05/14 08:39:40;;;;;;;1.08;0.60;;;23.10;90.20;;;;;;5066375;28;20207;-59
2022/05/14 08:42:11;;;;;;;0.80;0.68;;;23.10;88.10;;;;;;5066281;28;20195;-61
2022/05/14 08:44:38;;;;;;;1.83;0.88;;;23.30;86.30;;;;;;5066855;28;20257;-59
2022/05/14 08:47:21;;;;;;;3.55;0.55;;;22.60;87.40;;;;;;5067081;28;20269;-52
2022/05/14 08:49:49;;;;;;;1.67;0.70;;;22.70;87.30;;;;;;5066060;28;20203;-58
2022/05/14 08:52:24;;;;;;;2.13;1.17;;;22.10;88.40;;;;;;5066473;28;20221;-61
2022/05/14 08:54:56;;;;;;;0.60;0.60;;;22.70;86.00;;;;;;5066547;28;20291;-46
2022/05/14 08:57:33;;;;;;;0.95;0.60;;;23.50;84.80;;;;;;5066373;28;20260;-52
2022/05/14 09:00:00;;;;;;;0.50;0.50;;;24.00;83.50;;;;;;5083368;28;20185;-55
2022/05/14 09:02:30;;;;;;;2.38;0.73;;;24.10;83.60;;;;;;5066189;28;20186;-61
2022/05/14 09:05:05;;;;;;;1.23;0.70;;;24.50;80.80;;;;;;5066205;28;20182;-58
2022/05/14 09:07:31;;;;;;;1.00;0.70;;;23.90;82.80;;;;;;5082239;28;20245;-50
2022/05/14 09:09:57;;;;;;;0.82;0.50;;;24.90;80.70;;;;;;5066618;28;20186;-52
2022/05/14 09:12:27;;;;;;;1.20;0.98;;;24.40;79.90;;;;;;5082510;28;20312;-52
2022/05/14 09:15:00;;;;;;;1.75;0.63;;;24.10;80.90;;;;;;5066219;28;20173;-50
2022/05/14 09:17:29;;;;;;;0.47;0.47;;;24.60;78.40;;;;;;5066642;28;20186;-57
2022/05/14 09:19:58;;;;;;;0.70;0.70;;;25.80;73.50;;;;;;5066249;28;20193;-56
2022/05/14 09:22:52;;;;;;;0.77;0.77;;;25.40;73.50;;;;;;5066163;28;20190;-51
2022/05/14 09:25:25;;;;;;;1.85;0.70;;;25.20;74.20;;;;;;5039487;28;20292;-51
2022/05/14 09:27:58;;;;;;;0.70;0.68;;;24.90;74.40;;;;;;5066781;28;20202;-60
2022/05/14 09:30:35;;;;;;;0.35;0.30;;;25.60;71.30;;;;;;5066971;28;20193;-61
2022/05/14 09:33:02;;;;;;;1.17;0.45;;;26.00;71.50;;;;;;5082701;28;20213;-62
2022/05/14 09:35:32;;;;;;;0.60;0.60;;;26.10;72.10;;;;;;5066482;28;20182;-61
2022/05/14 09:38:18;;;;;;;0.30;0.30;;;26.80;67.40;;;;;;5066449;28;20182;-58
2022/05/14 09:40:44;;;;;;;1.10;0.30;;;27.80;66.70;;;;;;5067225;28;20189;-60
2022/05/14 09:43:12;;;;;;;0.52;0.52;;;27.40;65.10;;;;;;5066709;28;20644;-58
2022/05/14 09:45:40;;;;;;;0.60;0.30;;;27.80;66.70;;;;;;5066340;28;20190;-56
2022/05/14 09:48:20;;;;;;;0.30;0.30;;;28.50;64.10;;;;;;5066553;28;20217;-60
2022/05/14 09:50:57;;;;;;;0.30;0.30;;;28.40;62.50;;;;;;5066841;28;20185;-55
2022/05/14 09:53:32;;;;;;;0.40;0.40;;;29.40;61.60;;;;;;5067114;28;20201;-57
2022/05/14 09:56:30;;;;;;;1.92;0.60;;;29.90;60.50;;;;;;5068400;28;20272;-54
2022/05/14 09:59:06;;;;;;;0.35;0.35;;;27.30;62.20;;;;;;5069119;28;20293;-58
2022/05/14 10:01:41;;;;;;;0.30;0.30;;;27.70;61.50;;;;;;5086875;28;20186;-52
2022/05/14 10:04:18;;;;;;;0.30;0.30;;;27.80;61.50;;;;;;5069531;28;20181;-54
2022/05/14 10:06:49;;;;;;;1.38;0.20;;;28.00;60.80;;;;;;5086774;28;20236;-56
2022/05/14 10:09:53;;;;;;;0.40;0.40;;;28.40;59.80;;;;;;5070116;28;20177;-61
2022/05/14 10:12:44;;;;;;;0.30;0.30;;;30.00;58.10;;;;;;5046214;28;20197;-50
2022/05/14 10:15:16;;;;;;;1.45;0.50;;;30.50;56.70;;;;;;5070009;28;20193;-51
2022/05/14 10:17:44;;;;;;;0.45;0.43;;;29.10;57.10;;;;;;5086826;28;20182;-57
2022/05/14 10:20:33;;;;;;;0.98;0.60;;;27.20;61.20;;;;;;5086509;28;20189;-56
2022/05/14 10:26:47;;;;;;;0.22;0.20;;;29.60;56.60;;;;;;5087393;28;20269;-58
2022/05/14 10:29:31;;;;;;;0.50;0.50;;;28.40;57.50;;;;;;5086705;28;20273;-57
2022/05/14 10:32:02;;;;;;;0.40;0.30;;;29.00;57.00;;;;;;5086590;28;20177;-62
2022/05/14 10:34:43;;;;;;;0.40;0.40;;;29.10;55.80;;;;;;5085934;28;20193;-57
2022/05/14 10:37:38;;;;;;;1.35;1.05;;;29.80;55.00;;;;;;5069957;28;20281;-53
2022/05/14 10:40:18;;;;;;;0.40;0.40;;;29.50;54.90;;;;;;5054915;28;20197;-57
2022/05/14 10:42:53;;;;;;;1.52;0.43;;;29.80;54.40;;;;;;5085961;28;20221;-58
2022/05/14 10:45:23;;;;;;;0.73;0.40;;;30.70;52.60;;;;;;5086643;28;20197;-61
2022/05/14 10:48:17;;;;;;;0.40;0.40;;;30.40;53.80;;;;;;5069556;28;20280;-55
2022/05/14 10:50:43;;;;;;;0.77;0.77;;;31.20;53.50;;;;;;5085837;28;20584;-61
2022/05/14 10:53:10;;;;;;;2.38;0.45;;;31.40;52.40;;;;;;5069032;28;20235;-62
2022/05/14 10:55:55;;;;;;;1.30;0.90;;;31.40;52.40;;;;;;5069065;28;20302;-57
2022/05/14 10:58:36;;;;;;;2.63;0.95;;;30.50;52.20;;;;;;5069463;28;20186;-53
2022/05/14 11:01:11;;;;;;;0.40;0.40;;;31.20;51.90;;;;;;5069560;28;20243;-52
2022/05/14 11:03:40;;;;;;;1.63;0.50;;;32.20;50.90;;;;;;5068514;28;20280;-58
2022/05/14 11:06:09;;;;;;;0.60;0.30;;;32.90;49.60;;;;;;5069390;28;20213;-59
2022/05/14 11:08:42;;;;;;;0.20;0.20;;;31.90;49.30;;;;;;5069357;28;20197;-54
2022/05/14 11:11:17;;;;;;;0.57;0.50;;;31.00;50.70;;;;;;5069509;28;20213;-62
2022/05/14 11:14:02;;;;;;;0.17;0.17;;;30.60;50.30;;;;;;5086097;28;20195;-60
2022/05/14 11:16:40;;;;;;;0.50;0.47;;;30.20;50.00;;;;;;5068528;28;20186;-58
2022/05/14 11:19:07;;;;;;;0.50;0.50;;;30.90;50.80;;;;;;5068390;28;20185;-48
2022/05/14 11:21:43;;;;;;;0.20;0.20;;;32.30;48.50;;;;;;5068651;28;20178;-55
2022/05/14 11:24:11;;;;;;;0.57;0.40;;;31.40;49.50;;;;;;5069924;28;20188;-58
2022/05/14 11:26:52;;;;;;;0.95;0.40;;;33.10;47.60;;;;;;5069243;28;20185;-55
2022/05/14 11:29:25;;;;;;;1.42;0.40;;;33.40;47.20;;;;;;5067845;28;20189;-55
2022/05/14 11:32:08;;;;;;;0.45;0.30;;;33.30;48.20;;;;;;5068284;28;20194;-54
2022/05/14 11:34:34;;;;;;;0.95;0.38;;;31.70;49.40;;;;;;5068092;28;20190;-62
2022/05/14 11:37:05;;;;;;;2.67;1.17;;;29.40;50.00;;;;;;5085146;28;20178;-61
2022/05/14 11:39:37;;;;;;;1.25;0.70;;;29.20;51.60;;;;;;5068537;28;20186;-56
2022/05/14 11:42:29;;;;;;;0.30;0.30;;;30.90;49.80;;;;;;5068326;28;20286;-62
2022/05/14 11:45:18;;;;;;;0.40;0.40;;;32.00;48.90;;;;;;5067602;28;20182;-54
2022/05/14 11:47:53;;;;;;;1.17;0.70;;;32.20;48.50;;;;;;5085069;28;20196;-61
2022/05/14 11:50:23;;;;;;;2.00;1.75;;;34.20;46.60;;;;;;5068766;28;20192;-58
2022/05/14 11:53:21;;;;;;;0.30;0.30;;;34.00;45.70;;;;;;5068932;28;20188;-62
2022/05/14 11:55:54;;;;;;;0.52;0.52;;;34.90;45.20;;;;;;5057656;28;20300;-62
2022/05/14 11:58:50;;;;;;;0.38;0.38;;;34.10;46.00;;;;;;5068276;28;20194;-59
2022/05/14 12:01:26;;;;;;;0.32;0.32;;;34.30;46.60;;;;;;5068280;28;20201;-61
2022/05/14 12:03:52;;;;;;;1.10;0.38;;;34.10;44.80;;;;;;5067494;28;20266;-62
2022/05/14 12:06:31;;;;;;;0.47;0.47;;;34.30;45.50;;;;;;5067488;28;20207;-57
2022/05/14 12:09:00;;;;;;;1.65;0.60;;;33.80;45.10;;;;;;5085460;28;20248;-63
2022/05/14 12:11:40;;;;;;;2.30;0.40;;;32.40;47.00;;;;;;5084715;28;20205;-59
2022/05/14 12:14:15;;;;;;;3.80;0.30;;;31.30;48.20;;;;;;5067627;28;20185;-57
2022/05/14 12:16:51;;;;;;;0.60;0.38;;;33.00;46.90;;;;;;5067375;28;20200;-49
2022/05/14 12:19:23;;;;;;;0.43;0.43;;;33.80;45.30;;;;;;5067185;28;20280;-58
2022/05/14 12:22:03;;;;;;;0.38;0.30;;;35.30;45.00;;;;;;5068223;28;20278;-55
2022/05/14 12:24:30;;;;;;;0.68;0.38;;;34.80;45.30;;;;;;5085691;28;20193;-56
2022/05/14 12:26:57;;;;;;;0.73;0.45;;;34.30;44.90;;;;;;5085075;28;20192;-57
2022/05/14 12:29:29;;;;;;;0.60;0.30;;;34.80;44.40;;;;;;5067707;28;20189;-63
2022/05/14 12:34:53;;;;;;;1.33;0.40;;;35.60;45.50;;;;;;5084450;28;20192;-61
2022/05/14 12:37:28;;;;;;;0.30;0.30;;;34.90;46.00;;;;;;5067190;28;20201;-60
2022/05/14 12:39:58;;;;;;;0.45;0.45;;;36.40;44.50;;;;;;5067348;28;20223;-61
2022/05/14 12:42:36;;;;;;;0.80;0.20;;;35.60;43.70;;;;;;5067184;28;20270;-61
2022/05/14 12:45:03;;;;;;;0.30;0.30;;;34.70;44.00;;;;;;5067584;28;20193;-61
2022/05/14 12:47:31;;;;;;;0.88;0.40;;;35.40;43.70;;;;;;5067270;28;20189;-53
2022/05/14 12:49:58;;;;;;;0.30;0.30;;;36.20;42.90;;;;;;5067566;28;20173;-50
2022/05/14 12:52:28;;;;;;;0.35;0.35;;;37.00;42.30;;;;;;5067693;28;20264;-59
2022/05/14 12:54:59;;;;;;;0.40;0.40;;;37.00;42.70;;;;;;5068316;28;20199;-58
2022/05/14 12:57:27;;;;;;;0.65;0.20;;;35.60;43.80;;;;;;5067066;28;20224;-64
2022/05/14 12:59:54;;;;;;;0.30;0.30;;;31.80;44.30;;;;;;5066143;28;20189;-57
2022/05/14 13:02:29;;;;;;;0.28;0.25;;;31.50;45.50;;;;;;5067220;28;20210;-61
2022/05/14 13:05:19;;;;;;;1.08;0.32;;;33.50;43.70;;;;;;5066777;28;20188;-57
2022/05/14 13:08:08;;;;;;;0.25;0.25;;;35.60;42.70;;;;;;5066581;28;20221;-58
2022/05/14 13:10:34;;;;;;;1.83;1.17;;;34.30;40.80;;;;;;5067113;28;20193;-61
2022/05/14 13:13:07;;;;;;;1.45;0.30;;;32.60;43.00;;;;;;5066624;28;20173;-53
2022/05/14 13:15:52;;;;;;;0.60;0.20;;;33.40;42.40;;;;;;5066611;28;20323;-57
2022/05/14 13:18:32;;;;;;;0.40;0.22;;;34.10;42.10;;;;;;5066182;28;20196;-60
2022/05/14 13:20:59;;;;;;;0.30;0.30;;;36.00;40.60;;;;;;5066943;28;20181;-52
2022/05/14 13:23:25;;;;;;;0.40;0.17;;;37.20;38.60;;;;;;5083730;28;20219;-58
2022/05/14 13:25:57;;;;;;;0.68;0.30;;;35.30;39.60;;;;;;5066841;28;20181;-58
2022/05/14 13:28:30;;;;;;;1.25;0.50;;;34.30;40.60;;;;;;5083563;28;20190;-57
2022/05/14 13:30:56;;;;;;;0.20;0.20;;;34.80;40.10;;;;;;5065453;28;20189;-58
2022/05/14 13:33:25;;;;;;;0.40;0.40;;;35.50;40.30;;;;;;5066829;28;20190;-57